Fort Steilacoom, Washington
Current Conditions -  °F | °C
As of 7:58 AM on Wednesday 22 Oct 2014 (Local Time) from KGRF Reporting Station
Light Rain Light Rain  
Wind Chill: 56°   Ceiling: 3800
Heat Index: 56°   Visibility: 10mi
Dew Point: 55°   Wind: 8mph
Humidity: 97%   Direction: 160°SSE
Pressure: 29.7"   Gusts: NA
Location:  47.1451°N, 122.578°W
Report Text: KGRF 221458Z AUTO 16007KT 10SM -RA OVC038 13/13 A2970 RMK AO2 DZB1415E1417 SLP061 P0005 60020 T01330129 52010 $
Loading
Personal Weather Stations






























Interactive Weather Map
Tropical Storm Tracking
New forecast layout! Learn more

10-Day Weather Forecast

Advertisements
Track Severe Weather on mobile